Terminal Aerodrome Forecast
Issued by NWS

Home | Current Version | Previous Version | Text Only | Print | Product List | Glossary On
Versions: 1 2 3 4 5 6 7 8 9 10 11 12 13 14 15 16 17 18 19 20 21 22 23 24 25 26 27 28
297
FTUS45 KFGZ 232340
TAFGCN
TAF
KGCN 232340Z 2400/2424 24010G15KT 1SM -SN BR OVC006
      TEMPO 2400/2404 1/4SM +SN FZFG VV003
     FM240400 23013G20KT 1 1/2SM -SHSN BR OVC005
     FM241600 24009KT 3/4SM BR OVC015=

USA.gov is the U.S. government's official web portal to all federal, state and local government web resources and services.